Time;durP1;ratioP1;P1;durP2;ratioP2;P2;SDS_P1;SDS_P2;PMS_P1;PMS_P2;Temp;Humidity;BMP_temperature;BMP_pressure;BME280_temperature;BME280_humidity;BME280_pressure;Samples;Min_cycle;Max_cycle;Signal;HPM_P1;HPM_P2
2022/12/07 00:01:13;;;;;;;13.80;9.03;;;;;;;1.06;100.00;96265.25;4855928;29;20359;-87
2022/12/07 00:03:41;;;;;;;13.27;9.23;;;;;;;1.10;100.00;96267.50;4857494;29;20041;-86
2022/12/07 00:06:09;;;;;;;11.50;7.97;;;;;;;1.09;100.00;96265.88;4854905;29;20136;-87
2022/12/07 00:08:36;;;;;;;12.00;8.67;;;;;;;1.13;100.00;96266.50;4858269;29;20139;-87
2022/12/07 00:11:03;;;;;;;12.77;9.00;;;;;;;1.16;100.00;96263.69;4851315;29;20037;-87
2022/12/07 00:13:31;;;;;;;13.63;9.23;;;;;;;1.14;100.00;96252.59;4880710;29;20072;-87
2022/12/07 00:16:11;;;;;;;12.93;9.20;;;;;;;1.13;100.00;96254.38;4867867;29;20078;-87
2022/12/07 00:18:37;;;;;;;12.93;8.90;;;;;;;1.09;100.00;96252.91;4862672;29;20124;-87
2022/12/07 00:21:12;;;;;;;13.93;8.97;;;;;;;1.12;100.00;96257.06;4869815;29;20037;-86
2022/12/07 00:23:41;;;;;;;13.93;10.10;;;;;;;1.12;100.00;96255.31;4877655;29;20388;-87
2022/12/07 00:26:18;;;;;;;14.63;10.03;;;;;;;1.14;100.00;96261.22;4866777;29;20532;-87
2022/12/07 00:28:49;;;;;;;15.97;10.93;;;;;;;1.16;100.00;96259.34;4854899;29;20033;-87
2022/12/07 00:31:17;;;;;;;12.80;9.10;;;;;;;1.10;100.00;96258.91;4868497;29;20451;-87
2022/12/07 00:33:42;;;;;;;14.90;9.40;;;;;;;1.12;100.00;96247.53;4864493;29;20037;-87
2022/12/07 00:36:12;;;;;;;15.87;11.40;;;;;;;1.13;100.00;96250.94;4879949;29;20049;-87
2022/12/07 00:38:39;;;;;;;16.40;10.83;;;;;;;1.17;100.00;96242.91;4855529;29;20034;-87
2022/12/07 00:41:07;;;;;;;14.10;10.37;;;;;;;1.16;100.00;96243.81;4872841;29;20029;-87
2022/12/07 00:43:33;;;;;;;15.23;9.20;;;;;;;1.16;100.00;96241.22;4866588;29;20193;-87
2022/12/07 00:45:59;;;;;;;12.83;8.87;;;;;;;1.15;100.00;96239.56;4881802;29;20045;-87
2022/12/07 00:48:25;;;;;;;14.30;9.73;;;;;;;1.16;100.00;96248.16;4865376;29;20033;-87
2022/12/07 00:50:51;;;;;;;15.03;10.07;;;;;;;1.16;100.00;96242.97;4860107;29;20052;-87
2022/12/07 00:53:17;;;;;;;14.70;9.60;;;;;;;1.14;100.00;96245.69;4859926;29;20033;-87
2022/12/07 00:55:44;;;;;;;16.07;10.90;;;;;;;1.10;100.00;96239.03;4872050;29;20041;-87
2022/12/07 00:58:10;;;;;;;14.60;10.13;;;;;;;1.12;100.00;96250.13;4885127;29;20512;-87
2022/12/07 01:00:38;;;;;;;15.00;9.33;;;;;;;1.16;100.00;96251.56;4865988;29;20061;-87
2022/12/07 01:03:07;;;;;;;15.00;10.30;;;;;;;1.10;100.00;96246.78;4867305;29;20042;-87
2022/12/07 01:05:32;;;;;;;14.60;10.60;;;;;;;1.08;100.00;96246.09;4870784;29;20075;-87
2022/12/07 01:07:58;;;;;;;16.17;10.87;;;;;;;1.05;100.00;96250.63;4861311;29;20098;-87
2022/12/07 01:10:25;;;;;;;14.77;9.60;;;;;;;1.00;100.00;96253.50;4868404;29;20041;-86
2022/12/07 01:12:51;;;;;;;14.23;9.50;;;;;;;0.98;100.00;96257.97;4857665;29;20420;-87
2022/12/07 01:15:16;;;;;;;15.23;10.00;;;;;;;0.99;100.00;96246.69;4861460;29;20038;-87
2022/12/07 01:17:42;;;;;;;15.10;8.87;;;;;;;0.97;100.00;96243.34;4876324;29;20560;-87
2022/12/07 01:20:09;;;;;;;15.10;9.67;;;;;;;0.91;100.00;96249.78;4876321;29;20022;-87
2022/12/07 01:22:38;;;;;;;13.47;10.40;;;;;;;0.94;100.00;96246.16;4873989;29;20101;-87
2022/12/07 01:25:07;;;;;;;15.23;10.83;;;;;;;0.97;100.00;96253.72;4857990;29;20047;-87
2022/12/07 01:27:33;;;;;;;13.97;9.00;;;;;;;0.87;100.00;96258.69;4883529;29;20060;-87
2022/12/07 01:30:00;;;;;;;16.63;9.90;;;;;;;0.86;100.00;96261.34;4867936;29;20041;-87
2022/12/07 01:32:26;;;;;;;14.13;9.37;;;;;;;0.89;100.00;96255.97;4876065;29;20512;-87
2022/12/07 01:34:52;;;;;;;14.07;10.10;;;;;;;0.83;100.00;96259.78;4881850;29;20037;-87
2022/12/07 01:37:18;;;;;;;16.33;9.93;;;;;;;0.79;100.00;96252.31;4884470;29;20050;-87
2022/12/07 01:39:43;;;;;;;14.27;9.73;;;;;;;0.79;100.00;96254.91;4880060;29;20037;-87
2022/12/07 01:42:12;;;;;;;14.77;9.80;;;;;;;0.84;100.00;96258.03;4856479;29;20093;-87
2022/12/07 01:45:16;;;;;;;15.07;9.27;;;;;;;0.85;100.00;96259.69;4875041;29;20037;-87
2022/12/07 01:47:43;;;;;;;14.60;9.43;;;;;;;0.83;100.00;96262.38;4878746;29;20076;-87
2022/12/07 01:50:09;;;;;;;13.17;8.30;;;;;;;0.88;100.00;96264.69;4874415;29;21028;-87
2022/12/07 01:52:38;;;;;;;13.20;9.07;;;;;;;0.79;100.00;96260.91;4862793;29;20044;-87
2022/12/07 01:55:08;;;;;;;15.13;9.80;;;;;;;0.79;100.00;96260.09;4871530;29;20574;-87
2022/12/07 01:57:39;;;;;;;15.77;10.03;;;;;;;0.88;100.00;96260.34;4875980;29;20041;-87
2022/12/07 02:00:07;;;;;;;14.63;9.90;;;;;;;0.87;100.00;96260.41;4872022;29;20138;-87
2022/12/07 02:02:47;;;;;;;9.63;6.35;;;;;;;0.84;100.00;96260.59;4873674;29;20071;-87
2022/12/07 02:05:13;;;;;;;16.17;10.17;;;;;;;0.81;100.00;96260.84;4875037;29;20033;-87
2022/12/07 02:07:40;;;;;;;14.03;10.10;;;;;;;0.82;100.00;96262.47;4877940;29;20044;-87
2022/12/07 02:10:16;;;;;;;14.23;10.00;;;;;;;0.80;100.00;96266.91;4876779;29;20047;-87
2022/12/07 02:12:45;;;;;;;14.47;9.93;;;;;;;0.75;100.00;96259.47;4846740;29;20663;-87
2022/12/07 02:15:11;;;;;;;17.80;11.27;;;;;;;0.80;100.00;96266.91;4877182;29;20043;-87
2022/12/07 02:18:01;;;;;;;15.50;10.43;;;;;;;0.72;100.00;96264.00;4870010;29;20040;-87
2022/12/07 02:20:32;;;;;;;14.00;9.87;;;;;;;0.73;100.00;96263.06;4866102;29;20042;-87
2022/12/07 02:23:04;;;;;;;15.13;9.97;;;;;;;0.73;100.00;96263.06;4860847;29;20033;-88
2022/12/07 02:26:05;;;;;;;14.57;9.77;;;;;;;0.72;100.00;96256.25;4877003;29;20045;-87
2022/12/07 02:28:39;;;;;;;15.87;10.50;;;;;;;0.76;100.00;96257.69;4863005;29;20045;-87
2022/12/07 02:31:18;;;;;;;16.17;10.23;;;;;;;0.72;100.00;96257.06;4855201;29;20098;-87
2022/12/07 02:33:50;;;;;;;14.47;9.97;;;;;;;0.77;100.00;96246.41;4871436;29;20103;-87
2022/12/07 02:36:25;;;;;;;17.13;10.83;;;;;;;0.77;100.00;96251.59;4876745;29;20041;-87
2022/12/07 02:39:00;;;;;;;13.90;9.90;;;;;;;0.76;100.00;96249.94;4876697;29;20046;-87
2022/12/07 02:41:34;;;;;;;15.87;10.57;;;;;;;0.74;100.00;96241.41;4878470;29;20035;-87
2022/12/07 02:44:22;;;;;;;17.60;11.83;;;;;;;0.67;100.00;96254.78;4857685;29;20124;-87
2022/12/07 02:46:53;;;;;;;17.30;10.50;;;;;;;0.66;100.00;96250.50;4849010;29;20041;-87
2022/12/07 02:49:22;;;;;;;18.67;11.37;;;;;;;0.72;100.00;96248.47;4862130;29;20571;-87
2022/12/07 02:51:48;;;;;;;16.77;10.60;;;;;;;0.73;100.00;96250.13;4841619;29;20045;-87
2022/12/07 02:54:17;;;;;;;16.93;11.33;;;;;;;0.70;100.00;96248.56;4865262;29;20045;-87
2022/12/07 02:56:44;;;;;;;18.03;11.50;;;;;;;0.71;100.00;96252.81;4879943;29;20049;-87
2022/12/07 02:59:50;;;;;;;17.83;11.13;;;;;;;0.67;100.00;96257.38;4860597;29;20069;-87
2022/12/07 03:02:40;;;;;;;15.60;10.50;;;;;;;0.74;100.00;96251.78;4883689;29;20061;-86
2022/12/07 03:05:37;;;;;;;16.70;10.80;;;;;;;0.75;100.00;96243.09;4860293;29;20120;-87
2022/12/07 03:08:27;;;;;;;15.90;11.10;;;;;;;0.72;100.00;96240.72;4872509;29;20507;-87
2022/12/07 03:11:00;;;;;;;16.03;10.80;;;;;;;0.69;100.00;96239.13;4854515;29;20540;-87
2022/12/07 03:13:41;;;;;;;;;;;;;;;0.69;100.00;96232.19;4851693;29;20037;-87
2022/12/07 03:16:16;;;;;;;16.20;10.23;;;;;;;0.65;100.00;96235.94;4861992;29;19951;-87
2022/12/07 03:18:53;;;;;;;18.27;11.70;;;;;;;0.66;100.00;96234.97;4877654;29;20529;-87
2022/12/07 03:21:27;;;;;;;15.40;10.40;;;;;;;0.69;100.00;96228.78;4860915;29;20105;-87
2022/12/07 03:24:00;;;;;;;16.93;11.53;;;;;;;0.72;100.00;96232.94;4859212;29;20105;-87
2022/12/07 03:26:32;;;;;;;15.73;10.38;;;;;;;0.65;100.00;96229.91;4875461;29;20030;-85
2022/12/07 03:29:02;;;;;;;20.23;11.90;;;;;;;0.56;100.00;96222.75;4873231;29;20055;-85
2022/12/07 03:31:34;;;;;;;17.77;11.63;;;;;;;0.53;100.00;96226.34;4850863;29;20049;-84
2022/12/07 03:34:19;;;;;;;18.80;12.63;;;;;;;0.54;100.00;96224.59;4873327;29;20607;-84
2022/12/07 03:37:02;;;;;;;17.77;11.67;;;;;;;0.53;100.00;96223.75;4850303;29;20048;-85
2022/12/07 03:39:34;;;;;;;16.27;9.88;;;;;;;0.53;100.00;96226.34;4848122;29;20076;-85
2022/12/07 03:42:02;;;;;;;19.30;12.40;;;;;;;0.50;100.00;96230.88;4851061;29;20042;-85
2022/12/07 03:44:28;;;;;;;19.87;13.40;;;;;;;0.47;100.00;96219.00;4865407;29;20033;-84
2022/12/07 03:47:10;;;;;;;19.17;13.17;;;;;;;0.49;100.00;96222.31;4852611;29;20081;-84
2022/12/07 03:49:42;;;;;;;18.20;12.03;;;;;;;0.53;100.00;96217.75;4868682;29;20046;-84
2022/12/07 03:52:35;;;;;;;19.43;12.93;;;;;;;0.50;100.00;96226.53;4853928;29;20117;-85
2022/12/07 03:55:34;;;;;;;20.90;14.00;;;;;;;0.49;100.00;96221.47;4856223;29;20702;-85
2022/12/07 03:58:04;;;;;;;20.57;13.53;;;;;;;0.46;100.00;96222.50;4866498;29;20040;-84
2022/12/07 04:00:30;;;;;;;19.70;12.83;;;;;;;0.45;100.00;96226.84;4853709;29;20030;-85
2022/12/07 04:02:56;;;;;;;20.03;11.93;;;;;;;0.45;100.00;96220.84;4855026;29;20484;-85
2022/12/07 04:05:22;;;;;;;21.00;13.23;;;;;;;0.41;100.00;96214.22;4863053;29;20124;-85
2022/12/07 04:07:48;;;;;;;19.83;12.73;;;;;;;0.38;100.00;96210.06;4849444;29;20038;-85
2022/12/07 04:10:14;;;;;;;21.17;13.53;;;;;;;0.35;100.00;96209.41;4852014;29;20061;-85
2022/12/07 04:12:40;;;;;;;21.33;13.70;;;;;;;0.34;100.00;96212.94;4875130;29;20402;-85
2022/12/07 04:15:06;;;;;;;18.53;12.47;;;;;;;0.33;100.00;96203.50;4850945;29;20029;-85
2022/12/07 04:17:32;;;;;;;20.73;14.27;;;;;;;0.34;100.00;96203.41;4862231;29;20036;-84
2022/12/07 04:19:58;;;;;;;20.43;13.20;;;;;;;0.31;100.00;96200.19;4838471;29;20021;-84
2022/12/07 04:22:23;;;;;;;21.73;14.23;;;;;;;0.29;100.00;96195.13;4854231;29;20041;-84
2022/12/07 04:24:50;;;;;;;21.37;13.60;;;;;;;0.31;100.00;96192.44;4880589;29;20139;-85
2022/12/07 04:27:16;;;;;;;24.33;14.20;;;;;;;0.36;100.00;96195.56;4873261;29;20048;-85
2022/12/07 04:29:41;;;;;;;24.57;14.60;;;;;;;0.34;100.00;96192.25;4875328;29;20045;-85
2022/12/07 04:32:07;;;;;;;23.67;14.50;;;;;;;0.29;100.00;96183.94;4876311;29;20076;-84
2022/12/07 04:34:33;;;;;;;24.07;15.10;;;;;;;0.31;100.00;96182.09;4869116;29;20104;-84
2022/12/07 04:36:59;;;;;;;23.77;14.70;;;;;;;0.32;100.00;96181.16;4870826;29;20045;-84
2022/12/07 04:39:27;;;;;;;26.07;15.87;;;;;;;0.28;100.00;96177.94;4879398;29;20033;-84
2022/12/07 04:41:53;;;;;;;24.57;14.97;;;;;;;0.25;100.00;96178.13;4861425;29;20029;-84
2022/12/07 04:44:20;;;;;;;25.37;17.03;;;;;;;0.30;100.00;96176.06;4882060;29;20067;-84
2022/12/07 04:46:46;;;;;;;27.30;16.07;;;;;;;0.28;100.00;96171.94;4864484;29;20041;-84
2022/12/07 04:49:13;;;;;;;26.03;16.07;;;;;;;0.25;100.00;96172.13;4858153;29;20415;-85
2022/12/07 04:51:39;;;;;;;27.50;16.37;;;;;;;0.27;100.00;96163.34;4864823;29;20038;-84
2022/12/07 04:54:05;;;;;;;28.13;16.57;;;;;;;0.27;100.00;96165.94;4850798;29;21020;-85
2022/12/07 04:56:31;;;;;;;27.30;17.23;;;;;;;0.29;100.00;96174.41;4879711;29;20033;-85
2022/12/07 04:58:57;;;;;;;27.97;17.60;;;;;;;0.29;100.00;96179.59;4857811;29;20040;-84
2022/12/07 05:01:24;;;;;;;30.43;16.70;;;;;;;0.25;100.00;96178.13;4868697;29;20093;-84
2022/12/07 05:03:50;;;;;;;25.03;15.43;;;;;;;0.24;100.00;96184.25;4875070;29;20127;-84
2022/12/07 05:06:18;;;;;;;28.57;17.97;;;;;;;0.26;100.00;96181.53;4860212;29;20532;-84
2022/12/07 05:08:44;;;;;;;25.93;16.43;;;;;;;0.21;100.00;96172.31;4878901;29;20474;-84
2022/12/07 05:11:54;;;;;;;29.90;17.27;;;;;;;0.25;100.00;96177.31;4853628;29;20377;-84
2022/12/07 05:14:02;;;;;;;29.97;17.07;;;;;;;0.23;100.00;96180.84;4855068;29;20041;-84
2022/12/07 05:16:29;;;;;;;26.43;15.83;;;;;;;0.29;100.00;96179.59;4851889;29;20033;-86
2022/12/07 05:18:58;;;;;;;29.50;19.27;;;;;;;0.51;100.00;96179.06;4862806;29;20046;-85
2022/12/07 05:21:24;;;;;;;28.27;16.43;;;;;;;0.38;100.00;96175.59;4872283;29;20033;-86
2022/12/07 05:23:50;;;;;;;28.50;16.67;;;;;;;0.41;100.00;96180.59;4874373;29;20120;-85
2022/12/07 05:26:16;;;;;;;28.03;16.40;;;;;;;0.37;100.00;96187.72;4860872;29;20588;-86
2022/12/07 05:28:42;;;;;;;28.57;17.37;;;;;;;0.33;100.00;96191.41;4876207;29;20045;-85
2022/12/07 05:31:08;;;;;;;25.27;15.47;;;;;;;0.43;100.00;96197.63;4866282;29;20048;-87
2022/12/07 05:33:34;;;;;;;25.83;16.03;;;;;;;0.40;100.00;96191.84;4880944;29;20567;-87
2022/12/07 05:36:05;;;;;;;29.77;15.93;;;;;;;0.41;100.00;96183.16;4849805;29;20050;-87
2022/12/07 05:38:32;;;;;;;48.50;28.77;;;;;;;0.42;100.00;96190.00;4856817;29;20040;-87
2022/12/07 05:41:05;;;;;;;35.27;21.60;;;;;;;0.40;100.00;96191.84;4856412;29;20412;-88
2022/12/07 05:43:32;;;;;;;27.63;15.63;;;;;;;0.36;100.00;96193.78;4870500;29;20037;-88
2022/12/07 05:45:58;;;;;;;26.47;15.20;;;;;;;0.37;100.00;96194.63;4878830;29;20799;-88
2022/12/07 05:48:25;;;;;;;24.47;15.53;;;;;;;0.44;100.00;96185.56;4879114;29;20037;-88
2022/12/07 05:50:51;;;;;;;29.37;17.67;;;;;;;0.41;100.00;96184.00;4873149;29;20068;-87
2022/12/07 05:53:19;;;;;;;28.50;18.13;;;;;;;0.43;100.00;96176.13;4868445;29;20128;-87
2022/12/07 05:55:45;;;;;;;28.70;17.27;;;;;;;0.40;100.00;96184.94;4871913;29;20395;-88
2022/12/07 06:00:55;;;;;;;36.20;23.83;;;;;;;0.42;100.00;96206.34;4875114;29;20043;-88
2022/12/07 06:03:21;;;;;;;29.73;18.47;;;;;;;0.43;100.00;96204.56;4875829;29;20476;-88
2022/12/07 06:05:47;;;;;;;30.23;16.83;;;;;;;0.45;100.00;96205.31;4881844;29;20048;-88
2022/12/07 06:08:14;;;;;;;27.07;16.70;;;;;;;0.45;100.00;96202.72;4885698;29;20033;-87
2022/12/07 06:10:41;;;;;;;27.00;15.83;;;;;;;0.49;100.00;96209.38;4871479;29;20086;-88
2022/12/07 06:13:37;;;;;;;24.90;14.90;;;;;;;0.44;100.00;96201.91;4854984;29;20044;-90
2022/12/07 06:16:07;;;;;;;27.23;15.40;;;;;;;0.42;100.00;96205.50;4858965;29;20033;-91
2022/12/07 06:18:37;;;;;;;29.40;16.47;;;;;;;0.38;100.00;96206.63;4875875;29;20044;-88
2022/12/07 06:21:03;;;;;;;25.87;15.97;;;;;;;0.42;100.00;96211.50;4880952;29;20041;-88
2022/12/07 06:23:41;;;;;;;28.37;16.43;;;;;;;0.36;100.00;96204.13;4868767;29;20044;-88
2022/12/07 06:26:08;;;;;;;28.63;16.47;;;;;;;0.42;100.00;96208.09;4864180;29;20041;-88
2022/12/07 06:28:33;;;;;;;28.23;16.67;;;;;;;0.41;100.00;96209.03;4872087;29;20517;-87
2022/12/07 06:31:00;;;;;;;27.80;16.73;;;;;;;0.40;100.00;96208.22;4861486;29;20151;-88
2022/12/07 06:33:27;;;;;;;28.87;16.87;;;;;;;0.42;100.00;96218.44;4876586;29;20044;-88
2022/12/07 06:35:53;;;;;;;26.13;15.50;;;;;;;0.36;100.00;96200.72;4873955;29;20068;-88
2022/12/07 06:38:19;;;;;;;24.17;15.10;;;;;;;0.37;100.00;96210.13;4880585;29;20068;-88
2022/12/07 06:40:44;;;;;;;25.73;15.30;;;;;;;0.40;100.00;96212.53;4884868;29;20022;-88
2022/12/07 06:43:10;;;;;;;25.70;13.57;;;;;;;0.39;100.00;96221.22;4856053;29;20074;-88
2022/12/07 06:45:36;;;;;;;27.73;16.27;;;;;;;0.40;100.00;96212.53;4888181;29;20074;-88
2022/12/07 06:48:01;;;;;;;26.93;16.23;;;;;;;0.39;100.00;96221.22;4899078;29;20056;-88
2022/12/07 06:50:27;;;;;;;26.13;16.53;;;;;;;0.39;100.00;96223.81;4887716;29;20029;-88
2022/12/07 06:52:54;;;;;;;26.77;17.17;;;;;;;0.38;100.00;96222.16;4856773;29;20132;-88
2022/12/07 06:55:20;;;;;;;26.20;16.30;;;;;;;0.37;100.00;96217.91;4854366;29;20041;-88
2022/12/07 06:57:45;;;;;;;26.30;16.00;;;;;;;0.40;100.00;96215.97;4881038;29;20037;-88
2022/12/07 07:00:13;;;;;;;25.37;16.63;;;;;;;0.43;100.00;96220.09;4864310;29;20752;-88
2022/12/07 07:02:38;;;;;;;25.73;15.47;;;;;;;0.49;100.00;96217.13;4885328;29;20041;-89
2022/12/07 07:05:04;;;;;;;24.80;15.93;;;;;;;0.45;100.00;96216.50;4890822;29;20025;-88
2022/12/07 07:07:30;;;;;;;27.43;16.57;;;;;;;0.46;100.00;96212.16;4870724;29;20045;-88
2022/12/07 07:09:56;;;;;;;29.50;16.33;;;;;;;0.49;100.00;96209.38;4872647;29;20041;-88
2022/12/07 07:12:21;;;;;;;27.53;16.33;;;;;;;0.46;100.00;96218.16;4856347;29;20052;-88
2022/12/07 07:14:47;;;;;;;21.80;14.00;;;;;;;0.50;100.00;96213.59;4881011;29;20049;-88
2022/12/07 07:17:13;;;;;;;26.33;14.97;;;;;;;0.55;100.00;96215.91;4873432;29;20159;-88
2022/12/07 07:19:39;;;;;;;23.77;14.77;;;;;;;0.52;100.00;96222.09;4879659;29;20049;-88
2022/12/07 07:22:04;;;;;;;22.43;14.40;;;;;;;0.53;100.00;96222.94;4890087;29;20125;-88
2022/12/07 07:24:31;;;;;;;23.97;15.27;;;;;;;0.49;100.00;96226.66;4866261;29;20037;-88
2022/12/07 07:26:57;;;;;;;22.80;14.13;;;;;;;0.54;100.00;96224.59;4874977;29;20055;-88
2022/12/07 07:29:22;;;;;;;24.97;15.43;;;;;;;0.56;100.00;96227.91;4878926;29;20293;-88
2022/12/07 07:31:48;;;;;;;23.60;14.00;;;;;;;0.59;100.00;96232.91;4884596;29;20041;-88
2022/12/07 07:34:14;;;;;;;23.30;14.30;;;;;;;0.58;100.00;96237.25;4874473;29;20033;-88
2022/12/07 07:36:40;;;;;;;24.67;15.13;;;;;;;0.55;100.00;96236.63;4867761;29;20507;-88
2022/12/07 07:39:06;;;;;;;23.47;14.47;;;;;;;0.56;100.00;96233.09;4874473;29;20481;-89
2022/12/07 07:41:31;;;;;;;26.27;13.43;;;;;;;0.55;100.00;96228.84;4855323;29;20041;-88
2022/12/07 07:43:57;;;;;;;23.40;14.30;;;;;;;0.56;100.00;96228.75;4875287;29;20079;-88
2022/12/07 07:46:23;;;;;;;24.17;13.47;;;;;;;0.53;100.00;96234.09;4860724;29;20083;-88
2022/12/07 07:48:49;;;;;;;24.90;15.13;;;;;;;0.62;100.00;96243.06;4876308;29;20543;-88
2022/12/07 07:51:14;;;;;;;21.33;14.07;;;;;;;0.57;100.00;96235.59;4872323;29;20040;-88
2022/12/07 07:53:40;;;;;;;25.17;14.63;;;;;;;0.56;100.00;96238.25;4868852;29;20116;-88
2022/12/07 07:56:06;;;;;;;21.67;13.37;;;;;;;0.61;100.00;96242.22;4864076;29;20212;-88
2022/12/07 07:58:35;;;;;;;19.27;12.70;;;;;;;0.64;100.00;96242.03;4858135;29;20083;-88
2022/12/07 08:01:06;;;;;;;23.13;14.13;;;;;;;0.62;100.00;96246.47;4862109;29;20033;-88
2022/12/07 08:03:32;;;;;;;22.03;12.53;;;;;;;0.66;100.00;96232.41;4832319;29;20040;-89
2022/12/07 08:05:58;;;;;;;22.53;14.00;;;;;;;0.67;100.00;96238.41;4831513;29;20052;-88
2022/12/07 08:08:24;;;;;;;22.67;13.53;;;;;;;0.68;100.00;96237.50;4820634;29;21084;-89
2022/12/07 08:10:50;;;;;;;27.23;13.73;;;;;;;0.69;100.00;96246.91;4838721;29;20159;-89
2022/12/07 08:13:16;;;;;;;20.27;12.60;;;;;;;0.74;100.00;96237.09;4815330;29;20037;-89
2022/12/07 08:15:45;;;;;;;23.67;14.27;;;;;;;0.71;100.00;96237.28;4867345;29;20061;-89
2022/12/07 08:18:11;;;;;;;20.87;13.00;;;;;;;0.77;100.00;96234.31;4859924;29;20116;-88
2022/12/07 08:20:38;;;;;;;23.53;13.73;;;;;;;0.88;100.00;96236.22;4877390;29;20033;-88
2022/12/07 08:23:06;;;;;;;27.70;14.97;;;;;;;0.82;100.00;96234.00;4860557;29;20029;-89
2022/12/07 08:25:33;;;;;;;25.37;14.97;;;;;;;0.80;100.00;96239.28;4866454;29;20798;-88
2022/12/07 08:28:00;;;;;;;27.03;15.70;;;;;;;0.83;100.00;96235.66;4882149;29;20037;-88
2022/12/07 08:30:27;;;;;;;25.17;14.77;;;;;;;0.88;100.00;96241.38;4874746;29;20053;-88
2022/12/07 08:32:53;;;;;;;28.07;16.33;;;;;;;0.88;100.00;96242.22;4848880;29;20519;-89
2022/12/07 08:35:19;;;;;;;23.83;13.40;;;;;;;0.92;100.00;96248.00;4856961;29;20037;-89
2022/12/07 08:37:45;;;;;;;25.33;14.63;;;;;;;1.01;100.00;96244.00;4865337;29;20468;-89
2022/12/07 08:40:18;;;;;;;22.07;13.73;;;;;;;1.00;100.00;96247.50;4852953;29;20029;-88
2022/12/07 08:42:48;;;;;;;23.43;13.63;;;;;;;1.05;100.00;96241.09;4857647;29;20559;-90
2022/12/07 08:45:15;;;;;;;24.97;14.60;;;;;;;1.02;100.00;96249.06;4856824;29;20061;-87
2022/12/07 08:47:57;;;;;;;22.47;13.67;;;;;;;0.99;100.00;96244.09;4873649;29;20084;-88
2022/12/07 08:50:23;;;;;;;24.20;13.60;;;;;;;1.04;100.00;96246.38;4859011;29;20041;-88
2022/12/07 08:52:55;;;;;;;24.50;13.53;;;;;;;1.03;100.00;96250.72;4859979;29;20037;-89
2022/12/07 08:55:21;;;;;;;17.43;11.37;;;;;;;1.05;100.00;96241.09;4879567;29;20064;-89
2022/12/07 08:57:48;;;;;;;19.87;12.27;;;;;;;1.10;100.00;96241.63;4862453;29;20045;-88
2022/12/07 09:00:14;;;;;;;19.17;11.80;;;;;;;1.14;100.00;96240.50;4879914;29;20040;-88
2022/12/07 09:02:40;;;;;;;21.80;11.50;;;;;;;1.18;100.00;96244.53;4874942;29;20047;-89
2022/12/07 09:05:06;;;;;;;18.63;10.60;;;;;;;1.22;100.00;96246.94;4870532;29;20033;-89
2022/12/07 09:07:34;;;;;;;18.63;10.67;;;;;;;1.26;100.00;96248.38;4874926;29;20336;-88
2022/12/07 09:10:00;;;;;;;17.27;9.80;;;;;;;1.23;100.00;96243.41;4858423;29;20037;-89
2022/12/07 09:12:25;;;;;;;19.63;9.63;;;;;;;1.22;100.00;96241.75;4890565;29;20596;-89
2022/12/07 09:15:04;;;;;;;16.33;9.67;;;;;;;1.31;100.00;96241.97;4861529;29;20047;-88
2022/12/07 09:17:33;;;;;;;16.20;9.63;;;;;;;1.53;100.00;96241.34;4886697;29;20033;-88
2022/12/07 09:20:00;;;;;;;16.13;9.80;;;;;;;1.47;100.00;96236.56;4862058;29;20097;-89
2022/12/07 09:22:39;;;;;;;16.13;9.50;;;;;;;1.48;100.00;96237.44;4878242;29;20105;-88
2022/12/07 09:25:06;;;;;;;18.70;11.33;;;;;;;1.51;100.00;96238.06;4861856;29;20049;-88
2022/12/07 09:27:33;;;;;;;15.80;9.30;;;;;;;1.56;100.00;96235.13;4870523;29;20057;-89
2022/12/07 09:29:59;;;;;;;16.60;9.63;;;;;;;1.68;100.00;96231.72;4887874;29;20037;-88
2022/12/07 09:32:24;;;;;;;14.57;8.40;;;;;;;1.71;100.00;96234.09;4870525;29;20376;-89
2022/12/07 09:34:50;;;;;;;15.13;8.93;;;;;;;1.73;100.00;96231.41;4886465;29;20129;-89
2022/12/07 09:37:16;;;;;;;15.53;8.83;;;;;;;1.85;100.00;96222.78;4864054;29;20041;-89
2022/12/07 09:39:43;;;;;;;14.37;8.20;;;;;;;1.73;100.00;96221.03;4869968;29;20041;-89
2022/12/07 09:42:18;;;;;;;19.57;8.83;;;;;;;1.87;100.00;96213.94;4870552;29;20041;-89
2022/12/07 09:44:43;;;;;;;13.67;8.37;;;;;;;1.91;100.00;96217.16;4874337;29;20483;-89
2022/12/07 09:47:10;;;;;;;14.63;8.07;;;;;;;1.83;100.00;96209.09;4892822;29;20100;-89
2022/12/07 09:49:36;;;;;;;11.40;7.00;;;;;;;1.98;100.00;96208.03;4873700;29;20034;-89
2022/12/07 09:52:28;;;;;;;13.17;8.50;;;;;;;2.12;100.00;96210.47;4881669;29;20056;-89
2022/12/07 09:54:54;;;;;;;14.33;8.33;;;;;;;2.11;100.00;96203.66;4891095;29;20578;-89
2022/12/07 09:57:36;;;;;;;14.47;7.87;;;;;;;2.19;100.00;96202.28;4850033;29;20130;-89
2022/12/07 10:00:23;;;;;;;13.27;8.03;;;;;;;2.02;100.00;96196.50;4876292;29;20073;-89
2022/12/07 10:03:01;;;;;;;15.37;7.37;;;;;;;2.27;100.00;96199.94;4860350;29;20132;-88
2022/12/07 10:05:32;;;;;;;15.30;7.53;;;;;;;2.16;100.00;96198.13;4876884;29;20045;-89
2022/12/07 10:08:11;;;;;;;12.77;7.67;;;;;;;2.19;100.00;96197.09;4863338;29;20037;-89
2022/12/07 10:10:38;;;;;;;14.70;8.27;;;;;;;2.22;100.00;96189.09;4887014;29;20047;-89
2022/12/07 10:13:27;;;;;;;16.43;9.53;;;;;;;2.37;100.00;96193.16;4887404;29;20029;-89
2022/12/07 10:15:59;;;;;;;12.77;8.30;;;;;;;2.36;100.00;96189.75;4871173;29;20041;-89
2022/12/07 10:18:41;;;;;;;14.23;8.33;;;;;;;2.37;100.00;96195.75;4879879;29;20041;-88
2022/12/07 10:21:12;;;;;;;13.27;7.67;;;;;;;2.39;100.00;96190.47;4867930;29;20042;-88
2022/12/07 10:24:16;;;;;;;20.67;11.20;;;;;;;2.24;100.00;96182.00;4895000;29;20132;-91
2022/12/07 10:26:51;;;;;;;17.52;10.20;;;;;;;2.21;100.00;96183.03;4870295;29;20041;-93
2022/12/07 10:33:03;;;;;;;13.93;8.57;;;;;;;2.28;100.00;96181.69;4864823;29;20090;-94
2022/12/07 10:39:23;;;;;;;18.00;10.17;;;;;;;2.41;100.00;96166.03;4864360;29;20230;-94
2022/12/07 10:41:59;;;;;;;15.02;8.63;;;;;;;2.32;100.00;96175.34;4863735;29;20037;-94
2022/12/07 10:44:28;;;;;;;15.97;7.53;;;;;;;2.31;100.00;96172.84;4878782;29;20045;-95
2022/12/07 10:47:18;;;;;;;15.37;10.17;;;;;;;2.45;100.00;96166.66;4871559;29;20042;-91
2022/12/07 10:49:56;;;;;;;13.20;8.23;;;;;;;2.64;100.00;96158.38;4882091;29;20033;-91
2022/12/07 10:52:28;;;;;;;15.03;9.07;;;;;;;2.32;100.00;96157.19;4875671;29;20112;-91
2022/12/07 10:55:25;;;;;;;13.45;6.13;;;;;;;2.34;100.00;96149.25;4876712;29;20037;-91
2022/12/07 10:58:14;;;;;;;13.63;8.10;;;;;;;2.30;100.00;96153.03;4874652;29;20420;-91
2022/12/07 11:01:14;;;;;;;13.87;8.23;;;;;;;2.44;100.00;96155.44;4877463;29;20052;-91
2022/12/07 11:03:42;;;;;;;13.77;8.30;;;;;;;2.32;100.00;96158.94;4865691;29;20036;-91
2022/12/07 11:06:39;;;;;;;12.80;8.23;;;;;;;2.36;100.00;96155.19;4879137;29;20039;-92
2022/12/07 11:09:24;;;;;;;16.27;8.77;;;;;;;2.41;100.00;96160.03;4867532;29;20048;-90
2022/12/07 11:12:10;;;;;;;15.47;9.40;;;;;;;2.53;100.00;96153.97;4871564;29;20041;-91
2022/12/07 11:17:44;;;;;;;20.77;13.13;;;;;;;2.56;100.00;96154.56;4868651;29;20092;-91
2022/12/07 11:20:34;;;;;;;15.53;8.27;;;;;;;2.42;100.00;96149.56;4869143;29;20034;-91
2022/12/07 11:23:09;;;;;;;14.47;8.10;;;;;;;2.49;100.00;96142.97;4877362;29;20067;-91
2022/12/07 11:25:54;;;;;;;16.17;8.63;;;;;;;2.42;100.00;96141.78;4876216;29;20110;-92
2022/12/07 11:29:00;;;;;;;12.77;7.17;;;;;;;2.41;100.00;96140.09;4878281;29;20059;-92
2022/12/07 11:31:26;;;;;;;15.60;7.03;;;;;;;2.38;100.00;96134.28;4862915;29;20037;-92
2022/12/07 11:34:09;;;;;;;11.93;7.23;;;;;;;2.31;100.00;96134.78;4876355;29;20055;-92
2022/12/07 11:36:45;;;;;;;13.02;7.68;;;;;;;2.33;100.00;96139.84;4885899;29;20033;-92
2022/12/07 11:39:20;;;;;;;11.90;7.67;;;;;;;2.22;100.00;96124.22;4877342;29;20048;-92
2022/12/07 11:41:54;;;;;;;13.07;7.10;;;;;;;2.31;100.00;96134.78;4871327;29;20085;-91
2022/12/07 11:44:29;;;;;;;13.50;6.97;;;;;;;2.33;100.00;96125.09;4881348;29;20037;-92
2022/12/07 11:47:01;;;;;;;15.23;7.07;;;;;;;2.57;100.00;96119.03;4862049;29;20045;-92
2022/12/07 11:49:47;;;;;;;14.70;7.03;;;;;;;2.62;100.00;96111.75;4863096;29;20080;-93